sensor_id;sensor_type;location;lat;lon;timestamp;P1;P2;P0
77354;PMS7003;66422;51.202;19.936;2023-04-24T00:01:59;40.00;32.00;21.00
77354;PMS7003;66422;51.202;19.936;2023-04-24T00:17:20;46.00;36.33;25.67
77354;PMS7003;66422;51.202;19.936;2023-04-24T00:32:40;49.50;39.00;24.50
77354;PMS7003;66422;51.202;19.936;2023-04-24T00:48:00;50.00;39.00;24.50
77354;PMS7003;66422;51.202;19.936;2023-04-24T01:03:20;48.00;35.50;25.50
77354;PMS7003;66422;51.202;19.936;2023-04-24T01:18:41;56.50;44.50;30.00
77354;PMS7003;66422;51.202;19.936;2023-04-24T01:34:02;47.00;39.33;26.00
77354;PMS7003;66422;51.202;19.936;2023-04-24T01:49:22;44.33;36.67;26.67
77354;PMS7003;66422;51.202;19.936;2023-04-24T02:04:42;43.00;37.00;25.00
77354;PMS7003;66422;51.202;19.936;2023-04-24T02:20:02;42.67;33.33;23.33
77354;PMS7003;66422;51.202;19.936;2023-04-24T02:35:22;50.00;39.00;28.00
77354;PMS7003;66422;51.202;19.936;2023-04-24T02:50:41;55.00;42.50;30.50
77354;PMS7003;66422;51.202;19.936;2023-04-24T03:06:01;41.00;36.00;26.00
77354;PMS7003;66422;51.202;19.936;2023-04-24T03:21:21;52.00;40.00;27.00
77354;PMS7003;66422;51.202;19.936;2023-04-24T03:36:42;54.00;41.25;27.75
77354;PMS7003;66422;51.202;19.936;2023-04-24T03:52:02;55.00;39.00;28.00
77354;PMS7003;66422;51.202;19.936;2023-04-24T04:07:22;58.67;46.33;30.33
77354;PMS7003;66422;51.202;19.936;2023-04-24T04:22:42;62.50;46.00;30.00
77354;PMS7003;66422;51.202;19.936;2023-04-24T04:38:03;54.50;40.25;28.25
77354;PMS7003;66422;51.202;19.936;2023-04-24T04:53:32;56.67;42.67;28.67
77354;PMS7003;66422;51.202;19.936;2023-04-24T05:08:52;48.00;39.00;27.00
77354;PMS7003;66422;51.202;19.936;2023-04-24T05:24:22;48.00;36.00;26.00
77354;PMS7003;66422;51.202;19.936;2023-04-24T05:40:03;36.33;34.00;24.00
77354;PMS7003;66422;51.202;19.936;2023-04-24T05:55:25;39.00;33.00;25.00
77354;PMS7003;66422;51.202;19.936;2023-04-24T06:10:45;37.00;31.50;21.50
77354;PMS7003;66422;51.202;19.936;2023-04-24T06:26:05;36.00;31.50;22.00
77354;PMS7003;66422;51.202;19.936;2023-04-24T06:41:25;33.00;31.00;21.00
77354;PMS7003;66422;51.202;19.936;2023-04-24T06:56:45;26.00;25.00;19.00
77354;PMS7003;66422;51.202;19.936;2023-04-24T07:12:07;30.33;28.33;20.00
77354;PMS7003;66422;51.202;19.936;2023-04-24T07:27:26;27.67;25.00;20.00
77354;PMS7003;66422;51.202;19.936;2023-04-24T07:42:46;24.50;22.50;16.50
77354;PMS7003;66422;51.202;19.936;2023-04-24T07:58:07;13.67;13.00;11.33
77354;PMS7003;66422;51.202;19.936;2023-04-24T08:13:27;15.00;14.50;12.50
77354;PMS7003;66422;51.202;19.936;2023-04-24T08:28:47;14.00;12.33;10.33
77354;PMS7003;66422;51.202;19.936;2023-04-24T08:44:06;13.00;12.00;9.00
77354;PMS7003;66422;51.202;19.936;2023-04-24T08:59:26;10.50;10.50;8.00
77354;PMS7003;66422;51.202;19.936;2023-04-24T09:14:47;17.00;15.00;12.00
77354;PMS7003;66422;51.202;19.936;2023-04-24T09:30:07;14.00;14.00;12.00
77354;PMS7003;66422;51.202;19.936;2023-04-24T09:45:27;14.00;14.00;12.00
77354;PMS7003;66422;51.202;19.936;2023-04-24T10:00:47;13.33;13.00;9.67
77354;PMS7003;66422;51.202;19.936;2023-04-24T10:16:07;13.00;13.00;10.67
77354;PMS7003;66422;51.202;19.936;2023-04-24T10:31:27;17.00;10.00;10.00
77354;PMS7003;66422;51.202;19.936;2023-04-24T10:46:55;20.00;15.00;13.00
77354;PMS7003;66422;51.202;19.936;2023-04-24T11:02:15;15.00;15.00;13.00
77354;PMS7003;66422;51.202;19.936;2023-04-24T11:17:36;9.50;9.50;8.50
77354;PMS7003;66422;51.202;19.936;2023-04-24T11:33:02;12.00;10.00;8.00
77354;PMS7003;66422;51.202;19.936;2023-04-24T11:48:23;12.00;10.00;7.00
77354;PMS7003;66422;51.202;19.936;2023-04-24T12:03:46;9.00;8.00;7.67
77354;PMS7003;66422;51.202;19.936;2023-04-24T12:19:07;17.00;13.50;12.00
77354;PMS7003;66422;51.202;19.936;2023-04-24T12:34:26;15.00;12.00;10.00
77354;PMS7003;66422;51.202;19.936;2023-04-24T12:49:46;13.50;12.00;9.50
77354;PMS7003;66422;51.202;19.936;2023-04-24T13:05:06;9.00;8.50;7.00
77354;PMS7003;66422;51.202;19.936;2023-04-24T13:20:25;14.00;13.00;10.00
77354;PMS7003;66422;51.202;19.936;2023-04-24T13:35:46;24.00;20.00;18.00
77354;PMS7003;66422;51.202;19.936;2023-04-24T13:51:05;10.00;10.00;7.00
77354;PMS7003;66422;51.202;19.936;2023-04-24T14:06:25;14.33;12.00;9.67
77354;PMS7003;66422;51.202;19.936;2023-04-24T14:21:45;15.00;12.00;7.50
77354;PMS7003;66422;51.202;19.936;2023-04-24T14:37:04;13.67;13.67;11.00
77354;PMS7003;66422;51.202;19.936;2023-04-24T14:52:24;21.00;17.50;13.50
77354;PMS7003;66422;51.202;19.936;2023-04-24T15:07:43;21.00;17.33;15.33
77354;PMS7003;66422;51.202;19.936;2023-04-24T15:23:10;17.00;17.00;15.00
77354;PMS7003;66422;51.202;19.936;2023-04-24T15:38:30;22.00;22.00;16.50
77354;PMS7003;66422;51.202;19.936;2023-04-24T15:53:50;18.50;18.50;15.00
77354;PMS7003;66422;51.202;19.936;2023-04-24T16:09:09;24.50;20.25;17.25
77354;PMS7003;66422;51.202;19.936;2023-04-24T16:24:29;25.00;23.00;19.00
77354;PMS7003;66422;51.202;19.936;2023-04-24T16:39:49;23.75;23.00;18.00
77354;PMS7003;66422;51.202;19.936;2023-04-24T16:55:08;21.50;20.00;17.00
77354;PMS7003;66422;51.202;19.936;2023-04-24T17:10:28;28.00;24.00;19.00
77354;PMS7003;66422;51.202;19.936;2023-04-24T17:25:48;27.00;24.00;19.00
77354;PMS7003;66422;51.202;19.936;2023-04-24T17:41:08;33.00;29.50;21.00
77354;PMS7003;66422;51.202;19.936;2023-04-24T17:56:28;36.33;31.33;23.00
77354;PMS7003;66422;51.202;19.936;2023-04-24T18:11:49;32.67;31.00;22.67
77354;PMS7003;66422;51.202;19.936;2023-04-24T18:27:08;39.33;32.33;22.00
77354;PMS7003;66422;51.202;19.936;2023-04-24T18:42:28;26.33;25.00;20.00
77354;PMS7003;66422;51.202;19.936;2023-04-24T18:57:48;30.00;25.00;20.00
77354;PMS7003;66422;51.202;19.936;2023-04-24T19:13:08;32.00;27.00;21.00
77354;PMS7003;66422;51.202;19.936;2023-04-24T19:28:27;29.67;28.00;21.00
77354;PMS7003;66422;51.202;19.936;2023-04-24T19:43:47;38.00;32.33;23.00
77354;PMS7003;66422;51.202;19.936;2023-04-24T19:59:08;39.00;32.33;22.67
77354;PMS7003;66422;51.202;19.936;2023-04-24T20:14:28;40.67;31.67;21.67
77354;PMS7003;66422;51.202;19.936;2023-04-24T20:29:47;34.00;31.00;23.50
77354;PMS7003;66422;51.202;19.936;2023-04-24T20:45:07;35.00;32.00;21.00
77354;PMS7003;66422;51.202;19.936;2023-04-24T21:00:28;43.00;36.00;25.00
77354;PMS7003;66422;51.202;19.936;2023-04-24T21:15:48;28.50;28.50;22.00
77354;PMS7003;66422;51.202;19.936;2023-04-24T21:31:07;44.50;38.00;25.00
77354;PMS7003;66422;51.202;19.936;2023-04-24T21:46:27;43.67;35.67;26.00
77354;PMS7003;66422;51.202;19.936;2023-04-24T22:01:46;47.00;37.00;24.00
77354;PMS7003;66422;51.202;19.936;2023-04-24T22:17:06;40.00;36.00;24.00
77354;PMS7003;66422;51.202;19.936;2023-04-24T22:32:27;42.50;35.00;24.00
77354;PMS7003;66422;51.202;19.936;2023-04-24T22:47:50;46.33;37.33;25.00
77354;PMS7003;66422;51.202;19.936;2023-04-24T23:03:10;48.00;34.50;24.50
77354;PMS7003;66422;51.202;19.936;2023-04-24T23:18:29;42.00;35.00;24.00
77354;PMS7003;66422;51.202;19.936;2023-04-24T23:33:49;41.50;35.50;23.00
77354;PMS7003;66422;51.202;19.936;2023-04-24T23:49:09;34.00;32.00;21.00
